createdAt,value
2018-11-13T21:57:53.369Z,8.93
2018-11-13T22:00:40.466Z,7.20
2018-11-13T22:03:11.379Z,6.65
2018-11-13T22:05:42.573Z,6.93
2018-11-13T22:08:13.357Z,7.33
2018-11-13T22:10:44.113Z,7.03
2018-11-13T22:13:15.077Z,6.33
2018-11-13T22:15:46.310Z,6.80
2018-11-13T22:18:16.960Z,7.80
2018-11-13T22:20:47.317Z,10.00
2018-11-13T22:23:18.569Z,11.67
2018-11-13T22:25:49.953Z,13.37
2018-11-13T22:28:20.853Z,13.53
2018-11-13T22:30:51.392Z,14.23
2018-11-13T22:33:22.486Z,16.20
2018-11-13T22:35:53.082Z,16.47
2018-11-13T22:38:23.827Z,16.42
2018-11-13T22:40:55.360Z,15.67
2018-11-13T22:43:25.798Z,15.23
2018-11-13T22:45:57.025Z,16.40
2018-11-13T22:48:28.037Z,15.50
2018-11-13T22:50:59.671Z,17.63
2018-11-13T22:53:30.293Z,16.53
2018-11-13T22:56:00.981Z,17.70
2018-11-13T22:58:32.127Z,15.68
2018-11-13T23:01:03.456Z,17.10
2018-11-13T23:03:33.843Z,15.83
2018-11-13T23:08:40.448Z,18.40
2018-11-13T23:11:14.830Z,18.17
2018-11-13T23:13:45.447Z,20.60
2018-11-13T23:16:16.435Z,20.07
2018-11-13T23:18:47.106Z,19.00
2018-11-13T23:21:17.981Z,20.32
2018-11-13T23:26:26.059Z,17.13
2018-11-13T23:28:56.744Z,16.50
2018-11-13T23:31:27.649Z,14.07
2018-11-13T23:33:58.727Z,15.83
2018-11-13T23:39:10.001Z,16.30
2018-11-13T23:41:41.241Z,17.23
2018-11-13T23:44:11.972Z,17.67
2018-11-13T23:46:46.656Z,18.13
2018-11-13T23:49:17.244Z,18.50
2018-11-13T23:51:48.156Z,19.10
2018-11-13T23:54:18.905Z,19.50
2018-11-13T23:56:49.587Z,18.80
2018-11-13T23:59:20.173Z,18.70
